PWSweather.com
Personal Weather Stations
Station Observations
SOUTHSHROPSHIRE
Wheathill, BridgnorthGB Wv16 6QT

WheathillBridgnorthGB Wv16 6QT

Lat: 52.436666, Lon: -2.58768

Elevation: 1056

Station Type: Davis Vantage Vue

Latest ConditionsUpdated 1:00:00 PM GMT Wednesday, Jun 26, 2019
Currently Today's Max Today's Min Today's Average
Temperature 57.6°F14.2°C 57.6°F14.2°C 52.2°F11.2°C 53.9°F12.2°C
Dew Point 56.5°F13.6°C 56.5°F13.6°C 51.9°F11.1°C 53.4°F11.9°C
Winds 0.9 mph SE1.4 kmh SE 1.6 mph -2.6 kmh - - 0.9 mph 1.4 kmh
Wind Gusts 4.0 mph6.4 kmh 9.0 mph14.5 kmh - -
Humidity 96% 99% 95% 99%
Pressure 30.40 in1029.5 mb 30.41 in1029.8 mb 30.26 in1024.7 mb -
Precipitation - 0.02 in0.5 mm - -
Hour Temp Dew Point Humidity Winds Wind Gusts Pressure Precip Precip Rate Daily Precip Total
01:00 PM 57.6°F14.2°C 56.5°F13.6°C 96% 0.9 mph SE1.4 kmh SE 4.0 mph6.4 kmh 30.40 in1029.5 mb 0.00 in0.0 mm 0.00 in0.0 mm 0.02 in0.5 mm
12:50 PM 57.2°F14.0°C 55.8°F13.2°C 95% 1.4 mph SE2.3 kmh SE 6.0 mph9.7 kmh 30.40 in1029.5 mb 0.00 in0.0 mm 0.00 in0.0 mm 0.02 in0.5 mm
12:40 PM 57.4°F14.1°C 56.3°F13.5°C 96% 1.0 mph ESE1.6 kmh ESE 4.0 mph6.4 kmh 30.40 in1029.5 mb 0.00 in0.0 mm 0.00 in0.0 mm 0.02 in0.5 mm
12:30 PM 57.1°F13.9°C 56.3°F13.5°C 97% 0.9 mph SE1.4 kmh SE 4.0 mph6.4 kmh 30.40 in1029.5 mb 0.00 in0.0 mm 0.00 in0.0 mm 0.02 in0.5 mm
12:20 PM 56.6°F13.7°C 55.8°F13.2°C 97% 1.1 mph ESE1.8 kmh ESE 6.0 mph9.7 kmh 30.41 in1029.8 mb 0.00 in0.0 mm 0.00 in0.0 mm 0.02 in0.5 mm
12:10 PM 56.5°F13.6°C 55.7°F13.2°C 97% 1.0 mph ESE1.6 kmh ESE 6.0 mph9.7 kmh 30.41 in1029.8 mb 0.01 in0.3 mm 0.00 in0.0 mm 0.02 in0.5 mm
12:00 PM 56.5°F13.6°C 55.9°F13.3°C 98% 0.9 mph SSE1.4 kmh SSE 5.0 mph8.0 kmh 30.40 in1029.5 mb 0.01 in0.3 mm 0.00 in0.0 mm 0.02 in0.5 mm
11:50 AM 56.5°F13.6°C 55.7°F13.2°C 97% 0.9 mph SE1.4 kmh SE 5.0 mph8.0 kmh 30.41 in1029.8 mb 0.01 in0.3 mm 0.00 in0.0 mm 0.02 in0.5 mm
11:40 AM 56.6°F13.7°C 56.0°F13.3°C 98% 0.8 mph SE1.3 kmh SE 4.0 mph6.4 kmh 30.41 in1029.8 mb 0.01 in0.3 mm 0.00 in0.0 mm 0.02 in0.5 mm
11:30 AM 56.4°F13.6°C 55.8°F13.2°C 98% 0.9 mph SSE1.4 kmh SSE 4.0 mph6.4 kmh 30.41 in1029.8 mb 0.01 in0.3 mm 0.00 in0.0 mm 0.02 in0.5 mm
11:20 AM 55.9°F13.3°C 55.3°F12.9°C 98% 1.2 mph S1.9 kmh S 6.0 mph9.7 kmh 30.41 in1029.8 mb 0.01 in0.3 mm 0.06 in1.5 mm 0.02 in0.5 mm
11:10 AM 55.7°F13.2°C 55.1°F12.8°C 98% 1.4 mph SSE2.3 kmh SSE 8.0 mph12.9 kmh 30.40 in1029.5 mb 0.00 in0.0 mm 0.00 in0.0 mm 0.01 in0.3 mm
11:00 AM 55.5°F13.1°C 54.9°F12.7°C 98% 1.4 mph SE2.3 kmh SE 7.0 mph11.3 kmh 30.40 in1029.5 mb 0.00 in0.0 mm 0.00 in0.0 mm 0.01 in0.3 mm
10:50 AM 55.0°F12.8°C 54.4°F12.4°C 98% 1.3 mph ENE2.1 kmh ENE 6.0 mph9.7 kmh 30.41 in1029.8 mb 0.00 in0.0 mm 0.00 in0.0 mm 0.01 in0.3 mm
10:40 AM 54.8°F12.7°C 54.5°F12.5°C 99% 0.7 mph SE1.1 kmh SE 4.0 mph6.4 kmh 30.41 in1029.8 mb 0.00 in0.0 mm 0.00 in0.0 mm 0.01 in0.3 mm
10:30 AM 54.4°F12.4°C 54.1°F12.3°C 99% 0.9 mph SSE1.4 kmh SSE 3.0 mph4.8 kmh 30.41 in1029.8 mb 0.00 in0.0 mm 0.00 in0.0 mm 0.01 in0.3 mm
10:20 AM 54.1°F12.3°C 53.5°F11.9°C 98% 1.1 mph S1.8 kmh S 5.0 mph8.0 kmh 30.41 in1029.8 mb 0.00 in0.0 mm 0.00 in0.0 mm 0.01 in0.3 mm
10:10 AM 54.4°F12.4°C 54.1°F12.3°C 99% 0.7 mph SE1.1 kmh SE 5.0 mph8.0 kmh 30.40 in1029.5 mb 0.00 in0.0 mm 0.00 in0.0 mm 0.01 in0.3 mm
10:00 AM 54.1°F12.3°C 53.8°F12.1°C 99% 1.0 mph SE1.6 kmh SE 6.0 mph9.7 kmh 30.40 in1029.5 mb 0.00 in0.0 mm 0.00 in0.0 mm 0.01 in0.3 mm
09:50 AM 54.2°F12.3°C 53.9°F12.2°C 99% 1.2 mph S1.9 kmh S 8.0 mph12.9 kmh 30.39 in1029.1 mb 0.00 in0.0 mm 0.00 in0.0 mm 0.01 in0.3 mm
09:40 AM 54.0°F12.2°C 53.7°F12.1°C 99% 1.4 mph SE2.3 kmh SE 5.0 mph8.0 kmh 30.39 in1029.1 mb 0.00 in0.0 mm 0.00 in0.0 mm 0.01 in0.3 mm
09:30 AM 53.8°F12.1°C 53.5°F11.9°C 99% 1.1 mph S1.8 kmh S 3.0 mph4.8 kmh 30.38 in1028.8 mb 0.00 in0.0 mm 0.00 in0.0 mm 0.01 in0.3 mm
09:20 AM 53.7°F12.1°C 53.4°F11.9°C 99% 1.6 mph ESE2.6 kmh ESE 5.0 mph8.0 kmh 30.38 in1028.8 mb 0.00 in0.0 mm 0.00 in0.0 mm 0.01 in0.3 mm
09:10 AM 53.7°F12.1°C 53.4°F11.9°C 99% 1.6 mph SE2.6 kmh SE 8.0 mph12.9 kmh 30.37 in1028.4 mb 0.00 in0.0 mm 0.00 in0.0 mm 0.01 in0.3 mm
09:00 AM 53.7°F12.1°C 53.4°F11.9°C 99% 1.3 mph SE2.1 kmh SE 5.0 mph8.0 kmh 30.37 in1028.4 mb 0.00 in0.0 mm 0.00 in0.0 mm 0.01 in0.3 mm
08:50 AM 53.7°F12.1°C 53.4°F11.9°C 99% 1.1 mph SE1.8 kmh SE 6.0 mph9.7 kmh 30.37 in1028.4 mb 0.00 in0.0 mm 0.00 in0.0 mm 0.01 in0.3 mm
08:40 AM 53.7°F12.1°C 53.4°F11.9°C 99% 1.1 mph SE1.8 kmh SE 4.0 mph6.4 kmh 30.36 in1028.1 mb 0.00 in0.0 mm 0.00 in0.0 mm 0.01 in0.3 mm
08:30 AM 53.6°F12.0°C 53.3°F11.8°C 99% 1.0 mph ESE1.6 kmh ESE 9.0 mph14.5 kmh 30.37 in1028.4 mb 0.00 in0.0 mm 0.00 in0.0 mm 0.01 in0.3 mm
08:20 AM 53.6°F12.0°C 53.3°F11.8°C 99% 0.6 mph SE1.0 kmh SE 6.0 mph9.7 kmh 30.37 in1028.4 mb 0.00 in0.0 mm 0.00 in0.0 mm 0.01 in0.3 mm
08:10 AM 53.3°F11.8°C 53.0°F11.7°C 99% 1.0 mph E1.6 kmh E 5.0 mph8.0 kmh 30.36 in1028.1 mb 0.00 in0.0 mm 0.00 in0.0 mm 0.01 in0.3 mm
08:00 AM 53.1°F11.7°C 52.8°F11.6°C 99% 1.2 mph SSE1.9 kmh SSE 4.0 mph6.4 kmh 30.36 in1028.1 mb 0.00 in0.0 mm 0.00 in0.0 mm 0.01 in0.3 mm
07:50 AM 53.1°F11.7°C 52.8°F11.6°C 99% 1.0 mph S1.6 kmh S 4.0 mph6.4 kmh 30.37 in1028.4 mb 0.00 in0.0 mm 0.00 in0.0 mm 0.01 in0.3 mm
07:40 AM 53.1°F11.7°C 52.8°F11.6°C 99% 0.6 mph SE1.0 kmh SE 3.0 mph4.8 kmh 30.36 in1028.1 mb 0.00 in0.0 mm 0.00 in0.0 mm 0.01 in0.3 mm
07:30 AM 53.1°F11.7°C 52.8°F11.6°C 99% 1.1 mph ESE1.8 kmh ESE 6.0 mph9.7 kmh 30.36 in1028.1 mb 0.00 in0.0 mm 0.00 in0.0 mm 0.01 in0.3 mm
07:20 AM 53.0°F11.7°C 52.7°F11.5°C 99% 1.1 mph ESE1.8 kmh ESE 4.0 mph6.4 kmh 30.35 in1027.8 mb 0.00 in0.0 mm 0.00 in0.0 mm 0.01 in0.3 mm
07:10 AM 52.9°F11.6°C 52.6°F11.4°C 99% 0.6 mph S1.0 kmh S 4.0 mph6.4 kmh 30.35 in1027.8 mb 0.00 in0.0 mm 0.00 in0.0 mm 0.01 in0.3 mm
07:00 AM 52.8°F11.6°C 52.5°F11.4°C 99% 0.7 mph SE1.1 kmh SE 3.0 mph4.8 kmh 30.35 in1027.8 mb 0.00 in0.0 mm 0.00 in0.0 mm 0.01 in0.3 mm
06:50 AM 52.8°F11.6°C 52.5°F11.4°C 99% 0.6 mph ESE1.0 kmh ESE 4.0 mph6.4 kmh 30.35 in1027.8 mb 0.00 in0.0 mm 0.00 in0.0 mm 0.01 in0.3 mm
06:40 AM 52.6°F11.4°C 52.3°F11.3°C 99% 0.6 mph SE1.0 kmh SE 3.0 mph4.8 kmh 30.34 in1027.4 mb 0.00 in0.0 mm 0.00 in0.0 mm 0.01 in0.3 mm
06:30 AM 52.5°F11.4°C 52.2°F11.2°C 99% 0.4 mph E0.6 kmh E 4.0 mph6.4 kmh 30.34 in1027.4 mb 0.00 in0.0 mm 0.00 in0.0 mm 0.01 in0.3 mm
06:20 AM 52.6°F11.4°C 52.3°F11.3°C 99% 0.7 mph ESE1.1 kmh ESE 4.0 mph6.4 kmh 30.34 in1027.4 mb 0.00 in0.0 mm 0.00 in0.0 mm 0.01 in0.3 mm
06:10 AM 52.5°F11.4°C 52.2°F11.2°C 99% 0.3 mph E0.5 kmh E 3.0 mph4.8 kmh 30.34 in1027.4 mb 0.00 in0.0 mm 0.00 in0.0 mm 0.01 in0.3 mm
06:00 AM 52.4°F11.3°C 52.1°F11.2°C 99% 0.5 mph ESE0.8 kmh ESE 3.0 mph4.8 kmh 30.34 in1027.4 mb 0.00 in0.0 mm 0.00 in0.0 mm 0.01 in0.3 mm
05:50 AM 52.4°F11.3°C 52.1°F11.2°C 99% 0.5 mph E0.8 kmh E 7.0 mph11.3 kmh 30.34 in1027.4 mb 0.00 in0.0 mm 0.00 in0.0 mm 0.01 in0.3 mm
05:40 AM 52.3°F11.3°C 52.0°F11.1°C 99% 0.5 mph SSE0.8 kmh SSE 3.0 mph4.8 kmh 30.33 in1027.1 mb 0.00 in0.0 mm 0.00 in0.0 mm 0.01 in0.3 mm
05:30 AM 52.3°F11.3°C 52.0°F11.1°C 99% 0.9 mph E1.4 kmh E 5.0 mph8.0 kmh 30.32 in1026.8 mb 0.00 in0.0 mm 0.00 in0.0 mm 0.01 in0.3 mm
05:20 AM 52.2°F11.2°C 51.9°F11.1°C 99% 0.7 mph SE1.1 kmh SE 4.0 mph6.4 kmh 30.32 in1026.8 mb 0.00 in0.0 mm 0.00 in0.0 mm 0.01 in0.3 mm
05:10 AM 52.2°F11.2°C 51.9°F11.1°C 99% 1.0 mph S1.6 kmh S 6.0 mph9.7 kmh 30.32 in1026.8 mb 0.00 in0.0 mm 0.00 in0.0 mm 0.01 in0.3 mm
05:00 AM 52.3°F11.3°C 52.0°F11.1°C 99% 0.6 mph SE1.0 kmh SE 3.0 mph4.8 kmh 30.32 in1026.8 mb 0.00 in0.0 mm 0.00 in0.0 mm 0.01 in0.3 mm
04:50 AM 52.3°F11.3°C 52.0°F11.1°C 99% 0.9 mph SE1.4 kmh SE 5.0 mph8.0 kmh 30.32 in1026.8 mb 0.00 in0.0 mm 0.00 in0.0 mm 0.01 in0.3 mm
04:40 AM 52.3°F11.3°C 52.0°F11.1°C 99% 0.9 mph ESE1.4 kmh ESE 3.0 mph4.8 kmh 30.31 in1026.4 mb 0.00 in0.0 mm 0.00 in0.0 mm 0.01 in0.3 mm
04:30 AM 52.3°F11.3°C 52.0°F11.1°C 99% 0.7 mph ESE1.1 kmh ESE 4.0 mph6.4 kmh 30.31 in1026.4 mb 0.00 in0.0 mm 0.00 in0.0 mm 0.01 in0.3 mm
04:20 AM 52.3°F11.3°C 52.0°F11.1°C 99% 1.2 mph ESE1.9 kmh ESE 8.0 mph12.9 kmh 30.31 in1026.4 mb 0.00 in0.0 mm 0.00 in0.0 mm 0.01 in0.3 mm
04:10 AM 52.3°F11.3°C 52.0°F11.1°C 99% 0.8 mph E1.3 kmh E 6.0 mph9.7 kmh 30.30 in1026.1 mb 0.00 in0.0 mm 0.00 in0.0 mm 0.01 in0.3 mm
04:00 AM 52.4°F11.3°C 52.1°F11.2°C 99% 1.0 mph SE1.6 kmh SE 5.0 mph8.0 kmh 30.30 in1026.1 mb 0.00 in0.0 mm 0.00 in0.0 mm 0.01 in0.3 mm
03:50 AM 52.5°F11.4°C 52.2°F11.2°C 99% 1.0 mph SE1.6 kmh SE 4.0 mph6.4 kmh 30.30 in1026.1 mb 0.00 in0.0 mm 0.00 in0.0 mm 0.01 in0.3 mm
03:40 AM 52.5°F11.4°C 52.2°F11.2°C 99% 0.9 mph ESE1.4 kmh ESE 4.0 mph6.4 kmh 30.30 in1026.1 mb 0.00 in0.0 mm 0.00 in0.0 mm 0.01 in0.3 mm
03:30 AM 52.8°F11.6°C 52.5°F11.4°C 99% 0.8 mph SE1.3 kmh SE 4.0 mph6.4 kmh 30.29 in1025.7 mb 0.00 in0.0 mm 0.00 in0.0 mm 0.01 in0.3 mm
03:20 AM 52.8°F11.6°C 52.5°F11.4°C 99% 0.9 mph ESE1.4 kmh ESE 7.0 mph11.3 kmh 30.29 in1025.7 mb 0.00 in0.0 mm 0.00 in0.0 mm 0.01 in0.3 mm
03:10 AM 52.8°F11.6°C 52.5°F11.4°C 99% 0.9 mph SE1.4 kmh SE 5.0 mph8.0 kmh 30.29 in1025.7 mb 0.00 in0.0 mm 0.00 in0.0 mm 0.01 in0.3 mm
03:00 AM 52.8°F11.6°C 52.5°F11.4°C 99% 0.9 mph ESE1.4 kmh ESE 5.0 mph8.0 kmh 30.29 in1025.7 mb 0.00 in0.0 mm 0.00 in0.0 mm 0.01 in0.3 mm
02:50 AM 52.9°F11.6°C 52.6°F11.4°C 99% 1.0 mph SE1.6 kmh SE 4.0 mph6.4 kmh 30.28 in1025.4 mb 0.00 in0.0 mm 0.00 in0.0 mm 0.01 in0.3 mm
02:40 AM 52.9°F11.6°C 52.6°F11.4°C 99% 1.0 mph SSE1.6 kmh SSE 4.0 mph6.4 kmh 30.29 in1025.7 mb 0.00 in0.0 mm 0.00 in0.0 mm 0.01 in0.3 mm
02:30 AM 53.1°F11.7°C 52.8°F11.6°C 99% 1.0 mph SE1.6 kmh SE 4.0 mph6.4 kmh 30.28 in1025.4 mb 0.00 in0.0 mm 0.00 in0.0 mm 0.01 in0.3 mm
02:20 AM 53.1°F11.7°C 52.6°F11.4°C 98% 1.2 mph SE1.9 kmh SE 6.0 mph9.7 kmh 30.28 in1025.4 mb 0.00 in0.0 mm 0.00 in0.0 mm 0.01 in0.3 mm
02:10 AM 53.4°F11.9°C 52.8°F11.6°C 98% 0.5 mph SW0.8 kmh SW 3.0 mph4.8 kmh 30.28 in1025.4 mb 0.00 in0.0 mm 0.00 in0.0 mm 0.01 in0.3 mm
02:00 AM 53.6°F12.0°C 53.3°F11.8°C 99% 0.8 mph SE1.3 kmh SE 4.0 mph6.4 kmh 30.28 in1025.4 mb 0.00 in0.0 mm 0.00 in0.0 mm 0.01 in0.3 mm
01:50 AM 53.7°F12.1°C 53.4°F11.9°C 99% 0.9 mph ESE1.4 kmh ESE 6.0 mph9.7 kmh 30.28 in1025.4 mb 0.00 in0.0 mm 0.00 in0.0 mm 0.01 in0.3 mm
01:40 AM 53.8°F12.1°C 53.5°F11.9°C 99% 0.5 mph E0.8 kmh E 5.0 mph8.0 kmh 30.28 in1025.4 mb 0.00 in0.0 mm 0.00 in0.0 mm 0.01 in0.3 mm
01:30 AM 53.8°F12.1°C 53.2°F11.8°C 98% 0.5 mph ESE0.8 kmh ESE 3.0 mph4.8 kmh 30.28 in1025.4 mb 0.01 in0.3 mm 0.00 in0.0 mm 0.01 in0.3 mm
01:20 AM 53.9°F12.2°C 53.3°F11.8°C 98% 0.8 mph E1.3 kmh E 5.0 mph8.0 kmh 30.28 in1025.4 mb 0.01 in0.3 mm 0.00 in0.0 mm 0.01 in0.3 mm
01:10 AM 54.1°F12.3°C 53.5°F11.9°C 98% 0.5 mph ESE0.8 kmh ESE 4.0 mph6.4 kmh 30.28 in1025.4 mb 0.01 in0.3 mm 0.00 in0.0 mm 0.01 in0.3 mm
01:00 AM 54.3°F12.4°C 53.7°F12.1°C 98% 0.7 mph ESE1.1 kmh ESE 7.0 mph11.3 kmh 30.27 in1025.1 mb 0.01 in0.3 mm 0.00 in0.0 mm 0.01 in0.3 mm
12:50 AM 54.5°F12.5°C 53.9°F12.2°C 98% 0.5 mph ESE0.8 kmh ESE 3.0 mph4.8 kmh 30.27 in1025.1 mb 0.01 in0.3 mm 0.00 in0.0 mm 0.01 in0.3 mm
12:40 AM 54.7°F12.6°C 54.4°F12.4°C 99% 0.3 mph SE0.5 kmh SE 4.0 mph6.4 kmh 30.27 in1025.1 mb 0.01 in0.3 mm 0.06 in1.5 mm 0.01 in0.3 mm
12:30 AM 54.8°F12.7°C 54.5°F12.5°C 99% 0.6 mph SE1.0 kmh SE 2.0 mph3.2 kmh 30.27 in1025.1 mb 0.00 in0.0 mm 0.00 in0.0 mm 0.00 in0.0 mm
12:20 AM 54.8°F12.7°C 54.5°F12.5°C 99% 0.5 mph SSE0.8 kmh SSE 3.0 mph4.8 kmh 30.26 in1024.7 mb 0.00 in0.0 mm 0.00 in0.0 mm 0.00 in0.0 mm
12:10 AM 54.8°F12.7°C 54.5°F12.5°C 99% 0.5 mph ESE0.8 kmh ESE 3.0 mph4.8 kmh 30.26 in1024.7 mb 0.00 in0.0 mm 0.00 in0.0 mm 0.00 in0.0 mm
12:00 AM 54.9°F12.7°C 54.6°F12.6°C 99% 0.6 mph E1.0 kmh E 4.0 mph6.4 kmh 30.26 in1024.7 mb 0.00 in0.0 mm 0.00 in0.0 mm 0.00 in0.0 mm